Benton, TN (37307)

1:16 AM EDT on April 28, 2017 (GMT -0400)
MC0212 | | Change Station

Elev 856 ft 35.20 °N, 84.80 °W | Updated 5 minutes ago

Clear
Clear
59.0 °F
Feels Like 59.0 °F
N
0.0
Wind Variable Wind from SSW
Gusts 0.0 mph

Today
High -- | Low -- °F
--% Chance of Precip.
Yesterday
High -- | Low -- °F
Precip. -- in
Pressure 29.91 in
Visibility 10.0 miles
Clouds Clear
Dew Point 56 °F
Humidity 89%
Rainfall 0.20 in
Snow Depth Not available.
6:50 AM 8:22 PM
Waxing Crescent, 4% visible
METAR KRZR 280455Z AUTO 00000KT 10SM CLR 14/14 A2991 RMK A01
Pressure 29.91 in
Visibility 10.0 miles
Clouds Clear
Dew Point 56 °F
Humidity 89%
Rainfall 0.20 in
Snow Depth Not available.
6:50 AM 8:22 PM
Waxing Crescent, 4% visible
METAR KRZR 280455Z AUTO 00000KT 10SM CLR 14/14 A2991 RMK A01

Get Severe Weather Alerts

Thanks for signing up!

Be on the lookout for a verification email in your inbox.

You'll start receiving the daily forecast at 8 AM.

×

10-Day Weather Forecast

Almanac

Astronomy

Apr. 28, 2017 Rise Set
Actual Time
Civil Twilight
Nautical Twilight
Astronomical Twilight
Moon
Length of Visible Light
Length of Day
Tomorrow will be .
, % of the Moon is Illuminated

Today's Extremes

State Highs State Lows

Community

WunderPhotos

WunderBlog® & News

Nearby

Air Quality

  Air Quality AQ Index Pollutant
Not available.

Snow Depth

Station Depth Elevation

Earthquake Activity

City Distance Mag. Time & Date
Minimum magnitude displayed is 2.5.

Coastal Water Temperatures

Place Temperature

Stations

Nearby Weather Stations

Station Location Temp. Windchill Dew Point Humidity Wind Precip. Elev Updated Type
                   

Watches & Warnings

There are currently no watches in effect.